KNEL/NEL METAR and TAF weather

Enter ICAO airport designator
Station Type Date Time Source
KNEL METAR 2020/01/27 17:00 UTC NOAA

KNEL 271700Z 27015KT 10SM FEW031 SCT039 OVC090 07/M01 A2972 RMK AO2 SLP063 T00671011 $


Station Type Date Time Source
KNEL Decoded METAR 2020/01/27 17:00 UTC NOAA

Lakehurst Naval Air Station, NJ, United States (KNEL) 40-02N 074-19W 24M
Jan 27, 2020 - 12:00 PM EST / 2020.01.27 1700 UTC
Wind: from the W (270 degrees) at 17 MPH (15 KT):0
Visibility: 10 mile(s):0
Sky conditions: overcast
Temperature: 44.1 F (6.7 C)
Dew Point: 30.0 F (-1.1 C)
Relative Humidity: 57%
Pressure (altimeter): 29.72 in. Hg (1006 hPa)
ob: KNEL 271700Z 27015KT 10SM FEW031 SCT039 OVC090 07/M01 A2972 RMK AO2 SLP063 T00671011
cycle: 17

Station Type Date Time Source
KNEL TAF UTC NOAA

Error!

Example: see airport list